sensor_id;sensor_type;location;lat;lon;timestamp;pressure;altitude;pressure_sealevel;temperature;humidity
40850;BME280;26571;41.610;25.380;2023-07-16T00:01:27;98500.38;;;25.73;69.13
40850;BME280;26571;41.610;25.380;2023-07-16T00:03:53;98507.44;;;25.79;68.65
40850;BME280;26571;41.610;25.380;2023-07-16T00:06:18;98493.63;;;25.70;68.62
40850;BME280;26571;41.610;25.380;2023-07-16T00:08:43;98495.75;;;25.63;68.47
40850;BME280;26571;41.610;25.380;2023-07-16T00:11:09;98491.69;;;25.61;68.35
40850;BME280;26571;41.610;25.380;2023-07-16T00:13:34;98494.38;;;25.61;67.91
40850;BME280;26571;41.610;25.380;2023-07-16T00:15:59;98495.19;;;25.51;68.46
40850;BME280;26571;41.610;25.380;2023-07-16T00:18:24;98496.00;;;25.57;68.09
40850;BME280;26571;41.610;25.380;2023-07-16T00:20:50;98496.97;;;25.40;68.68
40850;BME280;26571;41.610;25.380;2023-07-16T00:23:15;98494.25;;;25.35;68.80
40850;BME280;26571;41.610;25.380;2023-07-16T00:25:40;98497.72;;;25.31;69.87
40850;BME280;26571;41.610;25.380;2023-07-16T00:28:05;98488.88;;;25.40;69.96
40850;BME280;26571;41.610;25.380;2023-07-16T00:30:31;98488.03;;;25.30;69.64
40850;BME280;26571;41.610;25.380;2023-07-16T00:32:56;98474.44;;;25.09;70.32
40850;BME280;26571;41.610;25.380;2023-07-16T00:35:21;98485.59;;;25.28;69.88
40850;BME280;26571;41.610;25.380;2023-07-16T00:37:46;98484.22;;;25.25;69.46
40850;BME280;26571;41.610;25.380;2023-07-16T00:40:12;98492.31;;;25.25;69.39
40850;BME280;26571;41.610;25.380;2023-07-16T00:42:40;98490.94;;;25.18;69.83
40850;BME280;26571;41.610;25.380;2023-07-16T00:45:08;98483.94;;;25.22;69.80
40850;BME280;26571;41.610;25.380;2023-07-16T00:47:34;98484.69;;;25.12;70.51
40850;BME280;26571;41.610;25.380;2023-07-16T00:49:59;98480.91;;;25.08;71.27
40850;BME280;26571;41.610;25.380;2023-07-16T00:52:25;98486.22;;;25.03;71.77
40850;BME280;26571;41.610;25.380;2023-07-16T00:54:50;98483.25;;;25.05;72.05
40850;BME280;26571;41.610;25.380;2023-07-16T00:57:15;98482.97;;;25.06;71.58
40850;BME280;26571;41.610;25.380;2023-07-16T00:59:41;98485.47;;;25.08;71.41
40850;BME280;26571;41.610;25.380;2023-07-16T01:02:06;98477.59;;;25.06;71.23
40850;BME280;26571;41.610;25.380;2023-07-16T01:04:31;98474.59;;;24.97;71.66
40850;BME280;26571;41.610;25.380;2023-07-16T01:06:58;98473.19;;;24.90;72.00
40850;BME280;26571;41.610;25.380;2023-07-16T01:09:26;98478.53;;;24.85;72.58
40850;BME280;26571;41.610;25.380;2023-07-16T01:11:53;98471.25;;;24.85;72.85
40850;BME280;26571;41.610;25.380;2023-07-16T01:14:19;98467.22;;;24.83;73.15
40850;BME280;26571;41.610;25.380;2023-07-16T01:16:44;98465.38;;;24.88;72.77
40850;BME280;26571;41.610;25.380;2023-07-16T01:19:10;98469.94;;;24.88;73.35
40850;BME280;26571;41.610;25.380;2023-07-16T01:29:28;98464.03;;;24.91;72.57
40850;BME280;26571;41.610;25.380;2023-07-16T01:31:54;98468.03;;;24.83;72.97
40850;BME280;26571;41.610;25.380;2023-07-16T01:34:20;98463.16;;;24.80;72.45
40850;BME280;26571;41.610;25.380;2023-07-16T01:36:46;98468.28;;;24.82;72.16
40850;BME280;26571;41.610;25.380;2023-07-16T01:39:11;98467.19;;;24.78;73.06
40850;BME280;26571;41.610;25.380;2023-07-16T01:41:36;98465.03;;;24.80;72.83
40850;BME280;26571;41.610;25.380;2023-07-16T01:44:01;98464.75;;;24.81;72.83
40850;BME280;26571;41.610;25.380;2023-07-16T01:46:27;98469.88;;;24.78;73.14
40850;BME280;26571;41.610;25.380;2023-07-16T01:48:52;98474.16;;;24.73;73.58
40850;BME280;26571;41.610;25.380;2023-07-16T01:51:17;98488.69;;;24.72;73.46
40850;BME280;26571;41.610;25.380;2023-07-16T01:53:45;98491.28;;;24.62;73.55
40850;BME280;26571;41.610;25.380;2023-07-16T01:56:10;98486.34;;;24.54;74.27
40850;BME280;26571;41.610;25.380;2023-07-16T01:58:35;98490.56;;;24.45;75.26
40850;BME280;26571;41.610;25.380;2023-07-16T02:01:00;98488.41;;;24.42;75.15
40850;BME280;26571;41.610;25.380;2023-07-16T02:03:26;98490.53;;;24.40;74.88
40850;BME280;26571;41.610;25.380;2023-07-16T02:05:51;98488.41;;;24.42;74.82
40850;BME280;26571;41.610;25.380;2023-07-16T02:08:16;98489.19;;;24.37;74.76
40850;BME280;26571;41.610;25.380;2023-07-16T02:10:42;98488.38;;;24.37;74.75
40850;BME280;26571;41.610;25.380;2023-07-16T02:13:07;98492.22;;;24.24;75.44
40850;BME280;26571;41.610;25.380;2023-07-16T02:15:32;98492.50;;;24.22;75.05
40850;BME280;26571;41.610;25.380;2023-07-16T02:17:58;98493.59;;;24.27;74.38
40850;BME280;26571;41.610;25.380;2023-07-16T02:20:23;98485.78;;;24.25;74.33
40850;BME280;26571;41.610;25.380;2023-07-16T02:22:48;98492.97;;;24.19;75.42
40850;BME280;26571;41.610;25.380;2023-07-16T02:25:13;98485.41;;;24.16;75.81
40850;BME280;26571;41.610;25.380;2023-07-16T02:27:39;98484.91;;;24.19;75.01
40850;BME280;26571;41.610;25.380;2023-07-16T02:30:04;98490.09;;;24.26;74.89
40850;BME280;26571;41.610;25.380;2023-07-16T02:32:31;98480.66;;;24.23;74.36
40850;BME280;26571;41.610;25.380;2023-07-16T02:34:57;98489.47;;;24.19;75.71
40850;BME280;26571;41.610;25.380;2023-07-16T02:37:22;98488.63;;;24.13;76.45
40850;BME280;26571;41.610;25.380;2023-07-16T02:39:47;98495.25;;;24.06;76.77
40850;BME280;26571;41.610;25.380;2023-07-16T02:42:13;98493.31;;;24.01;76.20
40850;BME280;26571;41.610;25.380;2023-07-16T02:44:38;98497.38;;;24.04;75.57
40850;BME280;26571;41.610;25.380;2023-07-16T02:47:08;98496.31;;;24.05;76.27
40850;BME280;26571;41.610;25.380;2023-07-16T02:49:33;98495.72;;;23.97;76.59
40850;BME280;26571;41.610;25.380;2023-07-16T02:51:58;98500.50;;;23.95;76.93
40850;BME280;26571;41.610;25.380;2023-07-16T02:54:24;98503.78;;;23.97;76.67
40850;BME280;26571;41.610;25.380;2023-07-16T02:56:49;98501.25;;;23.91;77.43
40850;BME280;26571;41.610;25.380;2023-07-16T02:59:14;98502.59;;;23.88;77.42
40850;BME280;26571;41.610;25.380;2023-07-16T03:01:40;98513.09;;;23.90;77.18
40850;BME280;26571;41.610;25.380;2023-07-16T03:04:05;98509.03;;;23.87;77.36
40850;BME280;26571;41.610;25.380;2023-07-16T03:06:30;98510.53;;;23.78;78.22
40850;BME280;26571;41.610;25.380;2023-07-16T03:08:55;98512.63;;;23.76;78.15
40850;BME280;26571;41.610;25.380;2023-07-16T03:11:21;98520.47;;;23.78;78.13
40850;BME280;26571;41.610;25.380;2023-07-16T03:13:47;98516.19;;;23.82;78.30
40850;BME280;26571;41.610;25.380;2023-07-16T03:16:12;98515.22;;;23.88;77.93
40850;BME280;26571;41.610;25.380;2023-07-16T03:18:37;98523.34;;;23.93;78.08
40850;BME280;26571;41.610;25.380;2023-07-16T03:21:03;98522.16;;;23.84;78.31
40850;BME280;26571;41.610;25.380;2023-07-16T03:23:28;98521.28;;;23.78;78.96
40850;BME280;26571;41.610;25.380;2023-07-16T03:25:53;98524.34;;;23.87;78.83
40850;BME280;26571;41.610;25.380;2023-07-16T03:28:18;98523.34;;;23.93;78.35
40850;BME280;26571;41.610;25.380;2023-07-16T03:30:47;98521.66;;;23.87;78.66
40850;BME280;26571;41.610;25.380;2023-07-16T03:33:13;98521.22;;;23.95;78.85
40850;BME280;26571;41.610;25.380;2023-07-16T03:35:38;98531.97;;;23.95;79.21
40850;BME280;26571;41.610;25.380;2023-07-16T03:38:04;98517.34;;;24.08;79.85
40850;BME280;26571;41.610;25.380;2023-07-16T03:40:29;98525.31;;;24.24;79.72
40850;BME280;26571;41.610;25.380;2023-07-16T03:42:55;98523.53;;;24.57;78.57
40850;BME280;26571;41.610;25.380;2023-07-16T03:45:20;98527.91;;;24.95;77.03
40850;BME280;26571;41.610;25.380;2023-07-16T03:47:46;98530.94;;;25.36;75.74
40850;BME280;26571;41.610;25.380;2023-07-16T03:50:11;98527.09;;;25.74;74.18
40850;BME280;26571;41.610;25.380;2023-07-16T03:52:36;98528.88;;;26.06;72.77
40850;BME280;26571;41.610;25.380;2023-07-16T03:55:02;98540.84;;;26.41;71.39
40850;BME280;26571;41.610;25.380;2023-07-16T03:57:28;98535.53;;;26.71;70.24
40850;BME280;26571;41.610;25.380;2023-07-16T03:59:53;98532.28;;;27.00;68.78
40850;BME280;26571;41.610;25.380;2023-07-16T04:02:18;98537.72;;;27.30;67.23
40850;BME280;26571;41.610;25.380;2023-07-16T04:04:44;98534.38;;;27.59;65.99
40850;BME280;26571;41.610;25.380;2023-07-16T04:07:09;98538.69;;;27.86;64.29
40850;BME280;26571;41.610;25.380;2023-07-16T04:09:36;98542.91;;;28.12;62.44
40850;BME280;26571;41.610;25.380;2023-07-16T04:12:02;98547.72;;;28.25;62.71
40850;BME280;26571;41.610;25.380;2023-07-16T04:14:27;98550.59;;;28.44;62.19
40850;BME280;26571;41.610;25.380;2023-07-16T04:16:52;98547.81;;;28.59;61.49
40850;BME280;26571;41.610;25.380;2023-07-16T04:19:23;98551.44;;;28.79;60.22
40850;BME280;26571;41.610;25.380;2023-07-16T04:21:48;98555.03;;;29.08;59.21
40850;BME280;26571;41.610;25.380;2023-07-16T04:24:14;98563.28;;;29.27;58.35
40850;BME280;26571;41.610;25.380;2023-07-16T04:26:39;98558.81;;;29.42;58.26
40850;BME280;26571;41.610;25.380;2023-07-16T04:29:04;98555.41;;;29.60;57.42
40850;BME280;26571;41.610;25.380;2023-07-16T04:31:30;98550.38;;;29.72;56.79
40850;BME280;26571;41.610;25.380;2023-07-16T04:33:55;98561.25;;;29.96;54.46
40850;BME280;26571;41.610;25.380;2023-07-16T04:36:20;98558.75;;;30.00;53.96
40850;BME280;26571;41.610;25.380;2023-07-16T04:38:45;98562.34;;;29.95;54.26
40850;BME280;26571;41.610;25.380;2023-07-16T04:41:11;98563.03;;;30.06;54.73
40850;BME280;26571;41.610;25.380;2023-07-16T04:43:37;98561.84;;;30.12;53.60
40850;BME280;26571;41.610;25.380;2023-07-16T04:46:03;98570.56;;;30.14;53.14
40850;BME280;26571;41.610;25.380;2023-07-16T04:48:28;98566.38;;;30.22;53.64
40850;BME280;26571;41.610;25.380;2023-07-16T04:50:53;98560.00;;;30.31;53.31
40850;BME280;26571;41.610;25.380;2023-07-16T04:53:19;98566.47;;;30.35;53.13
40850;BME280;26571;41.610;25.380;2023-07-16T04:55:44;98564.25;;;30.37;52.05
40850;BME280;26571;41.610;25.380;2023-07-16T04:58:12;98574.09;;;30.15;52.90
40850;BME280;26571;41.610;25.380;2023-07-16T05:00:37;98577.66;;;30.10;53.12
40850;BME280;26571;41.610;25.380;2023-07-16T05:03:03;98577.34;;;30.11;54.11
40850;BME280;26571;41.610;25.380;2023-07-16T05:05:28;98576.44;;;30.21;54.22
40850;BME280;26571;41.610;25.380;2023-07-16T05:07:54;98577.47;;;30.25;52.85
40850;BME280;26571;41.610;25.380;2023-07-16T05:10:19;98573.09;;;30.29;52.51
40850;BME280;26571;41.610;25.380;2023-07-16T05:12:44;98570.22;;;30.40;53.11
40850;BME280;26571;41.610;25.380;2023-07-16T05:15:10;98575.06;;;30.43;53.12
40850;BME280;26571;41.610;25.380;2023-07-16T05:17:35;98580.00;;;30.41;54.27
40850;BME280;26571;41.610;25.380;2023-07-16T05:20:00;98587.13;;;30.55;53.71
40850;BME280;26571;41.610;25.380;2023-07-16T05:22:26;98571.78;;;30.46;54.60
40850;BME280;26571;41.610;25.380;2023-07-16T05:24:51;98575.38;;;30.41;54.07
40850;BME280;26571;41.610;25.380;2023-07-16T05:27:16;98578.94;;;30.36;54.21
40850;BME280;26571;41.610;25.380;2023-07-16T05:29:41;98578.94;;;30.36;53.22
40850;BME280;26571;41.610;25.380;2023-07-16T05:32:07;98584.25;;;30.47;53.63
40850;BME280;26571;41.610;25.380;2023-07-16T05:34:32;98587.94;;;30.56;53.81
40850;BME280;26571;41.610;25.380;2023-07-16T05:36:58;98590.16;;;30.54;54.24
40850;BME280;26571;41.610;25.380;2023-07-16T05:39:23;98586.06;;;30.75;52.98
40850;BME280;26571;41.610;25.380;2023-07-16T05:41:49;98584.84;;;30.62;53.64
40850;BME280;26571;41.610;25.380;2023-07-16T05:44:14;98582.47;;;30.37;53.26
40850;BME280;26571;41.610;25.380;2023-07-16T05:46:40;98586.81;;;30.38;53.20
40850;BME280;26571;41.610;25.380;2023-07-16T05:49:05;98587.34;;;30.59;53.12
40850;BME280;26571;41.610;25.380;2023-07-16T05:51:31;98589.81;;;30.79;48.21
40850;BME280;26571;41.610;25.380;2023-07-16T05:53:56;98592.72;;;30.83;48.82
40850;BME280;26571;41.610;25.380;2023-07-16T05:56:21;98595.81;;;30.95;49.41
40850;BME280;26571;41.610;25.380;2023-07-16T05:58:47;98598.75;;;30.99;48.53
40850;BME280;26571;41.610;25.380;2023-07-16T06:01:12;98596.44;;;30.68;47.89
40850;BME280;26571;41.610;25.380;2023-07-16T06:03:37;98603.13;;;30.57;48.10
40850;BME280;26571;41.610;25.380;2023-07-16T06:06:08;98601.84;;;30.30;48.60
40850;BME280;26571;41.610;25.380;2023-07-16T06:08:33;98598.75;;;30.18;48.97
40850;BME280;26571;41.610;25.380;2023-07-16T06:10:58;98599.69;;;30.03;52.28
40850;BME280;26571;41.610;25.380;2023-07-16T06:13:26;98598.59;;;30.28;50.04
40850;BME280;26571;41.610;25.380;2023-07-16T06:15:51;98595.75;;;30.20;51.54
40850;BME280;26571;41.610;25.380;2023-07-16T06:18:17;98598.66;;;30.23;50.75
40850;BME280;26571;41.610;25.380;2023-07-16T06:20:47;98601.69;;;30.22;49.10
40850;BME280;26571;41.610;25.380;2023-07-16T06:23:13;98592.97;;;30.01;49.66
40850;BME280;26571;41.610;25.380;2023-07-16T06:25:41;98595.94;;;30.23;49.97
40850;BME280;26571;41.610;25.380;2023-07-16T06:28:09;98609.44;;;30.52;48.59
40850;BME280;26571;41.610;25.380;2023-07-16T06:30:35;98601.69;;;30.64;48.36
40850;BME280;26571;41.610;25.380;2023-07-16T06:33:00;98593.75;;;30.87;49.38
40850;BME280;26571;41.610;25.380;2023-07-16T06:35:25;98602.06;;;30.96;47.29
40850;BME280;26571;41.610;25.380;2023-07-16T06:37:51;98593.06;;;31.14;47.21
40850;BME280;26571;41.610;25.380;2023-07-16T06:40:16;98591.16;;;31.33;47.42
40850;BME280;26571;41.610;25.380;2023-07-16T06:42:41;98600.03;;;31.53;49.77
40850;BME280;26571;41.610;25.380;2023-07-16T06:45:07;98594.13;;;31.78;47.99
40850;BME280;26571;41.610;25.380;2023-07-16T06:47:33;98593.78;;;31.99;48.51
40850;BME280;26571;41.610;25.380;2023-07-16T06:49:58;98591.03;;;32.12;45.58
40850;BME280;26571;41.610;25.380;2023-07-16T06:52:24;98598.00;;;32.19;47.52
40850;BME280;26571;41.610;25.380;2023-07-16T06:54:55;98585.97;;;32.33;45.61
40850;BME280;26571;41.610;25.380;2023-07-16T06:57:21;98594.06;;;32.38;45.67
40850;BME280;26571;41.610;25.380;2023-07-16T06:59:46;98587.00;;;32.37;46.08
40850;BME280;26571;41.610;25.380;2023-07-16T07:02:12;98584.66;;;32.45;43.44
40850;BME280;26571;41.610;25.380;2023-07-16T07:04:37;98590.81;;;32.50;45.84
40850;BME280;26571;41.610;25.380;2023-07-16T07:07:02;98586.69;;;32.53;43.23
40850;BME280;26571;41.610;25.380;2023-07-16T07:09:28;98582.44;;;32.33;43.66
40850;BME280;26571;41.610;25.380;2023-07-16T07:11:53;98585.38;;;32.36;44.23
40850;BME280;26571;41.610;25.380;2023-07-16T07:14:18;98581.41;;;32.56;44.21
40850;BME280;26571;41.610;25.380;2023-07-16T07:16:44;98583.59;;;32.68;42.10
40850;BME280;26571;41.610;25.380;2023-07-16T07:19:09;98574.78;;;32.71;41.84
40850;BME280;26571;41.610;25.380;2023-07-16T07:21:34;98571.34;;;32.79;41.06
40850;BME280;26571;41.610;25.380;2023-07-16T07:23:59;98568.97;;;32.86;39.31
40850;BME280;26571;41.610;25.380;2023-07-16T07:26:25;98575.53;;;32.99;38.77
40850;BME280;26571;41.610;25.380;2023-07-16T07:28:50;98566.75;;;33.02;38.21
40850;BME280;26571;41.610;25.380;2023-07-16T07:31:15;98576.59;;;32.89;36.98
40850;BME280;26571;41.610;25.380;2023-07-16T07:33:41;98565.44;;;32.86;38.52
40850;BME280;26571;41.610;25.380;2023-07-16T07:36:06;98564.81;;;33.03;40.05
40850;BME280;26571;41.610;25.380;2023-07-16T07:38:31;98566.50;;;33.21;37.81
40850;BME280;26571;41.610;25.380;2023-07-16T07:40:57;98570.69;;;32.96;36.55
40850;BME280;26571;41.610;25.380;2023-07-16T07:43:22;98569.50;;;32.88;35.31
40850;BME280;26571;41.610;25.380;2023-07-16T07:45:47;98563.03;;;32.84;36.88
40850;BME280;26571;41.610;25.380;2023-07-16T07:48:12;98564.69;;;33.08;39.13
40850;BME280;26571;41.610;25.380;2023-07-16T07:50:38;98567.16;;;33.18;38.37
40850;BME280;26571;41.610;25.380;2023-07-16T07:53:03;98571.72;;;33.31;36.70
40850;BME280;26571;41.610;25.380;2023-07-16T07:55:28;98561.31;;;33.33;37.32
40850;BME280;26571;41.610;25.380;2023-07-16T07:57:53;98566.53;;;33.43;37.13
40850;BME280;26571;41.610;25.380;2023-07-16T08:00:19;98568.00;;;33.50;35.65
40850;BME280;26571;41.610;25.380;2023-07-16T08:02:45;98565.66;;;33.65;35.65
40850;BME280;26571;41.610;25.380;2023-07-16T08:05:10;98559.75;;;33.72;33.08
40850;BME280;26571;41.610;25.380;2023-07-16T08:07:35;98564.06;;;33.64;33.25
40850;BME280;26571;41.610;25.380;2023-07-16T08:10:01;98569.84;;;33.72;32.42
40850;BME280;26571;41.610;25.380;2023-07-16T08:12:26;98562.63;;;33.67;32.30
40850;BME280;26571;41.610;25.380;2023-07-16T08:14:51;98571.63;;;33.76;32.60
40850;BME280;26571;41.610;25.380;2023-07-16T08:17:18;98569.59;;;33.90;32.66
40850;BME280;26571;41.610;25.380;2023-07-16T08:19:43;98563.53;;;33.93;30.44
40850;BME280;26571;41.610;25.380;2023-07-16T08:22:08;98557.06;;;33.89;30.93
40850;BME280;26571;41.610;25.380;2023-07-16T08:24:34;98567.25;;;33.98;29.97
40850;BME280;26571;41.610;25.380;2023-07-16T08:26:59;98559.53;;;34.00;29.46
40850;BME280;26571;41.610;25.380;2023-07-16T08:29:24;98553.16;;;34.13;31.95
40850;BME280;26571;41.610;25.380;2023-07-16T08:31:50;98555.88;;;34.04;28.32
40850;BME280;26571;41.610;25.380;2023-07-16T08:34:15;98560.06;;;33.70;29.31
40850;BME280;26571;41.610;25.380;2023-07-16T08:36:41;98555.91;;;33.73;30.16
40850;BME280;26571;41.610;25.380;2023-07-16T08:39:07;98562.34;;;33.77;29.09
40850;BME280;26571;41.610;25.380;2023-07-16T08:41:33;98558.03;;;33.85;27.64
40850;BME280;26571;41.610;25.380;2023-07-16T08:43:58;98556.16;;;33.94;29.11
40850;BME280;26571;41.610;25.380;2023-07-16T08:46:23;98542.97;;;33.96;28.69
40850;BME280;26571;41.610;25.380;2023-07-16T08:48:49;98545.41;;;33.98;28.87
40850;BME280;26571;41.610;25.380;2023-07-16T08:51:15;98539.63;;;33.99;29.19
40850;BME280;26571;41.610;25.380;2023-07-16T08:53:41;98541.06;;;34.05;27.88
40850;BME280;26571;41.610;25.380;2023-07-16T08:56:06;98538.03;;;34.07;29.79
40850;BME280;26571;41.610;25.380;2023-07-16T08:58:32;98542.03;;;34.01;27.71
40850;BME280;26571;41.610;25.380;2023-07-16T09:00:58;98545.16;;;33.85;27.59
40850;BME280;26571;41.610;25.380;2023-07-16T09:03:24;98540.66;;;33.81;28.01
40850;BME280;26571;41.610;25.380;2023-07-16T09:05:49;98541.91;;;33.75;29.11
40850;BME280;26571;41.610;25.380;2023-07-16T09:08:15;98538.69;;;33.64;29.35
40850;BME280;26571;41.610;25.380;2023-07-16T09:10:40;98541.75;;;33.71;28.32
40850;BME280;26571;41.610;25.380;2023-07-16T09:13:06;98541.78;;;33.80;27.56
40850;BME280;26571;41.610;25.380;2023-07-16T09:15:31;98542.44;;;33.85;30.03
40850;BME280;26571;41.610;25.380;2023-07-16T09:17:59;98538.56;;;33.86;28.46
40850;BME280;26571;41.610;25.380;2023-07-16T09:20:24;98525.44;;;33.88;29.45
40850;BME280;26571;41.610;25.380;2023-07-16T09:22:56;98526.69;;;33.82;29.82
40850;BME280;26571;41.610;25.380;2023-07-16T09:25:28;98526.28;;;33.98;30.39
40850;BME280;26571;41.610;25.380;2023-07-16T09:27:53;98529.34;;;34.05;30.37
40850;BME280;26571;41.610;25.380;2023-07-16T09:30:19;98527.25;;;34.10;29.70
40850;BME280;26571;41.610;25.380;2023-07-16T09:32:44;98529.34;;;34.05;30.40
40850;BME280;26571;41.610;25.380;2023-07-16T09:35:17;98535.94;;;34.04;31.34
40850;BME280;26571;41.610;25.380;2023-07-16T09:37:42;98525.97;;;33.99;30.76
40850;BME280;26571;41.610;25.380;2023-07-16T09:40:08;98519.22;;;33.97;31.16
40850;BME280;26571;41.610;25.380;2023-07-16T09:42:38;98521.88;;;33.79;31.47
40850;BME280;26571;41.610;25.380;2023-07-16T09:45:05;98519.91;;;33.71;33.85
40850;BME280;26571;41.610;25.380;2023-07-16T09:47:30;98517.00;;;33.67;31.44
40850;BME280;26571;41.610;25.380;2023-07-16T09:49:55;98523.63;;;33.75;31.96
40850;BME280;26571;41.610;25.380;2023-07-16T09:55:04;98502.59;;;33.84;32.06
40850;BME280;26571;41.610;25.380;2023-07-16T09:57:52;98505.19;;;33.89;31.69
40850;BME280;26571;41.610;25.380;2023-07-16T10:00:15;98507.78;;;33.94;31.92
40850;BME280;26571;41.610;25.380;2023-07-16T10:02:42;98501.78;;;33.84;31.06
40850;BME280;26571;41.610;25.380;2023-07-16T10:05:27;98497.31;;;33.88;32.85
40850;BME280;26571;41.610;25.380;2023-07-16T10:07:56;98494.22;;;33.81;34.11
40850;BME280;26571;41.610;25.380;2023-07-16T10:10:46;98490.69;;;33.80;31.58
40850;BME280;26571;41.610;25.380;2023-07-16T10:13:11;98491.34;;;33.86;32.83
40850;BME280;26571;41.610;25.380;2023-07-16T10:15:38;98487.81;;;33.85;32.11
40850;BME280;26571;41.610;25.380;2023-07-16T10:18:03;98485.72;;;33.74;33.08
40850;BME280;26571;41.610;25.380;2023-07-16T10:20:29;98492.28;;;33.81;32.20
40850;BME280;26571;41.610;25.380;2023-07-16T10:22:55;98479.78;;;33.80;32.58
40850;BME280;26571;41.610;25.380;2023-07-16T10:27:46;98482.31;;;33.68;32.35
40850;BME280;26571;41.610;25.380;2023-07-16T10:30:11;98486.50;;;33.74;33.25
40850;BME280;26571;41.610;25.380;2023-07-16T10:32:37;98482.81;;;33.79;33.54
40850;BME280;26571;41.610;25.380;2023-07-16T10:35:03;98477.00;;;33.72;34.02
40850;BME280;26571;41.610;25.380;2023-07-16T10:37:29;98478.00;;;33.67;32.61
40850;BME280;26571;41.610;25.380;2023-07-16T10:39:55;98472.69;;;33.62;33.15
40850;BME280;26571;41.610;25.380;2023-07-16T10:42:22;98468.00;;;33.62;33.97
40850;BME280;26571;41.610;25.380;2023-07-16T10:44:51;98474.72;;;33.56;33.60
40850;BME280;26571;41.610;25.380;2023-07-16T10:47:22;98466.22;;;33.58;34.29
40850;BME280;26571;41.610;25.380;2023-07-16T10:49:48;98465.13;;;33.67;34.34
40850;BME280;26571;41.610;25.380;2023-07-16T10:52:13;98466.56;;;33.65;35.70
40850;BME280;26571;41.610;25.380;2023-07-16T10:54:39;98468.97;;;33.58;33.84
40850;BME280;26571;41.610;25.380;2023-07-16T10:57:06;98457.22;;;33.49;35.05
40850;BME280;26571;41.610;25.380;2023-07-16T10:59:31;98466.00;;;33.46;35.57
40850;BME280;26571;41.610;25.380;2023-07-16T11:01:57;98462.19;;;33.55;34.97
40850;BME280;26571;41.610;25.380;2023-07-16T11:04:23;98462.38;;;33.59;34.41
40850;BME280;26571;41.610;25.380;2023-07-16T11:06:49;98456.91;;;33.59;34.83
40850;BME280;26571;41.610;25.380;2023-07-16T11:09:15;98454.50;;;33.57;34.79
40850;BME280;26571;41.610;25.380;2023-07-16T11:11:40;98442.78;;;33.57;35.27
40850;BME280;26571;41.610;25.380;2023-07-16T11:14:06;98446.31;;;33.66;35.56
40850;BME280;26571;41.610;25.380;2023-07-16T11:16:35;98441.22;;;33.73;34.50
40850;BME280;26571;41.610;25.380;2023-07-16T11:19:01;98442.81;;;33.74;34.53
40850;BME280;26571;41.610;25.380;2023-07-16T11:21:27;98437.69;;;33.81;35.15
40850;BME280;26571;41.610;25.380;2023-07-16T11:23:52;98437.22;;;33.88;35.06
40850;BME280;26571;41.610;25.380;2023-07-16T11:26:18;98433.03;;;33.90;34.25
40850;BME280;26571;41.610;25.380;2023-07-16T11:28:43;98441.56;;;33.89;34.42
40850;BME280;26571;41.610;25.380;2023-07-16T11:31:15;98439.78;;;33.84;34.45
40850;BME280;26571;41.610;25.380;2023-07-16T11:33:46;98438.97;;;33.84;34.18
40850;BME280;26571;41.610;25.380;2023-07-16T11:36:12;98434.66;;;33.83;34.17
40850;BME280;26571;41.610;25.380;2023-07-16T11:38:38;98425.94;;;33.81;32.83
40850;BME280;26571;41.610;25.380;2023-07-16T11:41:03;98428.00;;;33.66;34.10
40850;BME280;26571;41.610;25.380;2023-07-16T11:43:29;98429.25;;;33.52;33.99
40850;BME280;26571;41.610;25.380;2023-07-16T11:45:58;98422.34;;;33.46;34.65
40850;BME280;26571;41.610;25.380;2023-07-16T11:48:23;98426.06;;;33.50;33.67
40850;BME280;26571;41.610;25.380;2023-07-16T11:50:49;98430.25;;;33.56;33.34
40850;BME280;26571;41.610;25.380;2023-07-16T11:53:14;98432.03;;;33.60;34.86
40850;BME280;26571;41.610;25.380;2023-07-16T11:55:41;98420.59;;;33.50;33.25
40850;BME280;26571;41.610;25.380;2023-07-16T11:58:07;98420.75;;;33.44;34.66
40850;BME280;26571;41.610;25.380;2023-07-16T12:00:32;98430.91;;;33.53;34.16
40850;BME280;26571;41.610;25.380;2023-07-16T12:03:00;98417.38;;;33.48;33.93
40850;BME280;26571;41.610;25.380;2023-07-16T12:05:28;98423.19;;;33.55;33.64
40850;BME280;26571;41.610;25.380;2023-07-16T12:07:53;98414.34;;;33.49;33.37
40850;BME280;26571;41.610;25.380;2023-07-16T12:10:19;98417.00;;;33.40;34.14
40850;BME280;26571;41.610;25.380;2023-07-16T12:12:44;98419.00;;;33.49;33.71
40850;BME280;26571;41.610;25.380;2023-07-16T12:15:10;98424.94;;;33.51;33.36
40850;BME280;26571;41.610;25.380;2023-07-16T12:17:35;98420.41;;;33.46;33.34
40850;BME280;26571;41.610;25.380;2023-07-16T12:20:01;98416.41;;;33.43;34.48
40850;BME280;26571;41.610;25.380;2023-07-16T12:22:26;98409.19;;;33.48;34.64
40850;BME280;26571;41.610;25.380;2023-07-16T12:24:52;98416.53;;;33.38;33.68
40850;BME280;26571;41.610;25.380;2023-07-16T12:27:17;98415.34;;;33.22;34.00
40850;BME280;26571;41.610;25.380;2023-07-16T12:29:43;98407.97;;;33.23;34.17
40850;BME280;26571;41.610;25.380;2023-07-16T12:32:08;98417.28;;;33.30;34.59
40850;BME280;26571;41.610;25.380;2023-07-16T12:34:34;98414.41;;;33.35;35.21
40850;BME280;26571;41.610;25.380;2023-07-16T12:36:59;98405.25;;;33.31;34.74
40850;BME280;26571;41.610;25.380;2023-07-16T12:39:24;98413.28;;;33.28;34.70
40850;BME280;26571;41.610;25.380;2023-07-16T12:41:50;98412.47;;;33.27;34.80
40850;BME280;26571;41.610;25.380;2023-07-16T12:44:15;98411.22;;;33.33;34.33
40850;BME280;26571;41.610;25.380;2023-07-16T12:46:40;98407.81;;;33.28;34.38
40850;BME280;26571;41.610;25.380;2023-07-16T12:49:05;98407.31;;;33.26;35.44
40850;BME280;26571;41.610;25.380;2023-07-16T12:51:31;98395.59;;;33.25;35.27
40850;BME280;26571;41.610;25.380;2023-07-16T12:53:56;98396.44;;;33.34;36.62
40850;BME280;26571;41.610;25.380;2023-07-16T12:56:21;98405.09;;;33.36;35.13